首页
METAR-TAF:

METAR-TAF

机场 :

默特尔比奇, 南卡罗来纳州, 美国

纬度: 33-41N, 经度: 078-56W, 海拔: 8米

当前天气观测

该预报发布于20分钟前的13:56 UTC
风速6节,风向西
温度 28°C
湿度 74%
气压 1019 hPa
能見度: 16.1公里
天空无云

METAR: KMYR 201356Z 26006KT 10SM CLR 28/23 A3008 RMK AO2 SLP186 T02830228

时间: 10:16 (14:16 UTC)

预报

该预报发布于2小时和56分钟前的11:20 UTC
预报有效从20日的 12点(UTC)到 21日的 12点(UTC)
风速7节,风向西转西南
能見度: 10公里
散云层高于5000英尺
多云层高于14000英尺
从 20日的 1600点(UTC)
风速10节,风向南转西南,有时为21节阵风
能見度: 10公里
散云层高于3500英尺
散云层高于12000英尺
附近有阵雨
从 21日的 0000点(UTC)
风速8节,风向南转西南
能見度: 10公里
散云层高于9000英尺
多云层高于14000英尺
从 21日的 0500点(UTC)
风速5节,风向西南
能見度: 10公里
散云层高于10000英尺
从 21日的 0900点(UTC)
风速5节,风向南转西南
能見度: 10公里
多云层高于3000英尺
附近有阵雨

TAF: KMYR 201120Z 2012/2112 24007KT P6SM SCT050 BKN140 FM201600 21010G21KT P6SM VCSH SCT035 SCT120 FM210000 21008KT P6SM SCT090 BKN140 FM210500 22005KT P6SM SCT100 FM210900 21005KT P6SM VCSH BKN030

超过4000个机场的气象观测和天气预报(METAR&TAF报告)。

可查询的气象台以黄色和红色小点在地图上表示。

将鼠标移到小点上方,可查看气象台名称。

然后点击查看天气观测和预报。

如需切换地图:点击带黑十字的绿色按钮放大地图;点击带横线的绿色按钮缩小地图;或者点击绿色箭头查看邻近地区的地图。


METAR-TAF: